sensor_id;sensor_type;location;lat;lon;timestamp;pressure;altitude;pressure_sealevel;temperature;humidity
27334;BME280;14817;57.104;-2.094;2024-03-08T00:02:18;101138.66;;;5.57;100.00
27334;BME280;14817;57.104;-2.094;2024-03-08T00:04:46;101142.59;;;5.64;100.00
27334;BME280;14817;57.104;-2.094;2024-03-08T00:07:13;101137.28;;;5.64;100.00
27334;BME280;14817;57.104;-2.094;2024-03-08T00:09:40;101134.22;;;5.70;100.00
27334;BME280;14817;57.104;-2.094;2024-03-08T00:12:07;101117.84;;;5.63;100.00
27334;BME280;14817;57.104;-2.094;2024-03-08T00:14:36;101113.91;;;5.69;100.00
27334;BME280;14817;57.104;-2.094;2024-03-08T00:17:05;101118.69;;;5.64;100.00
27334;BME280;14817;57.104;-2.094;2024-03-08T00:19:32;101124.00;;;5.64;100.00
27334;BME280;14817;57.104;-2.094;2024-03-08T00:21:59;101127.59;;;5.63;100.00
27334;BME280;14817;57.104;-2.094;2024-03-08T00:24:27;101133.47;;;5.55;100.00
27334;BME280;14817;57.104;-2.094;2024-03-08T00:26:55;101145.34;;;5.49;100.00
27334;BME280;14817;57.104;-2.094;2024-03-08T00:29:22;101135.47;;;5.51;100.00
27334;BME280;14817;57.104;-2.094;2024-03-08T00:31:49;101127.16;;;5.43;100.00
27334;BME280;14817;57.104;-2.094;2024-03-08T00:34:18;101122.28;;;5.50;100.00
27334;BME280;14817;57.104;-2.094;2024-03-08T00:36:45;101115.25;;;5.36;100.00
27334;BME280;14817;57.104;-2.094;2024-03-08T00:39:12;101108.47;;;5.32;100.00
27334;BME280;14817;57.104;-2.094;2024-03-08T00:41:40;101082.00;;;5.30;100.00
27334;BME280;14817;57.104;-2.094;2024-03-08T00:44:06;101064.47;;;5.28;100.00
27334;BME280;14817;57.104;-2.094;2024-03-08T00:46:34;101055.66;;;5.15;100.00
27334;BME280;14817;57.104;-2.094;2024-03-08T00:49:01;101041.94;;;5.08;100.00
27334;BME280;14817;57.104;-2.094;2024-03-08T00:51:28;101033.00;;;4.96;100.00
27334;BME280;14817;57.104;-2.094;2024-03-08T00:53:55;101029.19;;;5.00;100.00
27334;BME280;14817;57.104;-2.094;2024-03-08T00:56:30;101017.31;;;5.06;100.00
27334;BME280;14817;57.104;-2.094;2024-03-08T00:58:59;101033.22;;;4.93;100.00
27334;BME280;14817;57.104;-2.094;2024-03-08T01:01:26;101027.69;;;4.96;100.00
27334;BME280;14817;57.104;-2.094;2024-03-08T01:03:53;101018.03;;;4.95;100.00
27334;BME280;14817;57.104;-2.094;2024-03-08T01:06:20;101008.59;;;4.91;100.00
27334;BME280;14817;57.104;-2.094;2024-03-08T01:08:47;101023.44;;;4.94;100.00
27334;BME280;14817;57.104;-2.094;2024-03-08T01:11:19;101008.78;;;5.01;100.00
27334;BME280;14817;57.104;-2.094;2024-03-08T01:13:46;101002.88;;;4.97;100.00
27334;BME280;14817;57.104;-2.094;2024-03-08T01:16:16;100995.63;;;4.99;100.00
27334;BME280;14817;57.104;-2.094;2024-03-08T01:18:44;100993.94;;;4.98;100.00
27334;BME280;14817;57.104;-2.094;2024-03-08T01:21:16;100992.03;;;5.00;100.00
27334;BME280;14817;57.104;-2.094;2024-03-08T01:23:46;100987.88;;;5.09;100.00
27334;BME280;14817;57.104;-2.094;2024-03-08T01:26:13;100989.03;;;5.05;100.00
27334;BME280;14817;57.104;-2.094;2024-03-08T01:28:41;100971.88;;;5.10;100.00
27334;BME280;14817;57.104;-2.094;2024-03-08T01:31:08;100968.78;;;5.17;100.00
27334;BME280;14817;57.104;-2.094;2024-03-08T01:33:38;100966.97;;;5.17;100.00
27334;BME280;14817;57.104;-2.094;2024-03-08T01:36:05;100961.84;;;5.14;100.00
27334;BME280;14817;57.104;-2.094;2024-03-08T01:38:32;100963.34;;;5.18;100.00
27334;BME280;14817;57.104;-2.094;2024-03-08T01:41:00;100958.47;;;5.25;100.00
27334;BME280;14817;57.104;-2.094;2024-03-08T01:43:36;100952.84;;;5.29;100.00
27334;BME280;14817;57.104;-2.094;2024-03-08T01:46:03;100947.00;;;5.24;100.00
27334;BME280;14817;57.104;-2.094;2024-03-08T01:48:30;100951.22;;;5.27;100.00
27334;BME280;14817;57.104;-2.094;2024-03-08T01:50:58;100938.41;;;5.21;100.00
27334;BME280;14817;57.104;-2.094;2024-03-08T01:53:26;100937.66;;;5.19;100.00
27334;BME280;14817;57.104;-2.094;2024-03-08T01:55:56;100951.03;;;5.17;100.00
27334;BME280;14817;57.104;-2.094;2024-03-08T01:58:31;100940.53;;;5.16;100.00
27334;BME280;14817;57.104;-2.094;2024-03-08T02:01:00;100947.13;;;5.10;100.00
27334;BME280;14817;57.104;-2.094;2024-03-08T02:03:38;100940.31;;;5.19;100.00
27334;BME280;14817;57.104;-2.094;2024-03-08T02:06:05;100939.59;;;5.17;100.00
27334;BME280;14817;57.104;-2.094;2024-03-08T02:08:35;100924.91;;;5.24;100.00
27334;BME280;14817;57.104;-2.094;2024-03-08T02:11:04;100935.44;;;5.13;100.00
27334;BME280;14817;57.104;-2.094;2024-03-08T02:13:32;100934.16;;;5.05;100.00
27334;BME280;14817;57.104;-2.094;2024-03-08T02:15:59;100932.47;;;5.04;100.00
27334;BME280;14817;57.104;-2.094;2024-03-08T02:18:28;100930.97;;;5.13;100.00
27334;BME280;14817;57.104;-2.094;2024-03-08T02:20:57;100922.78;;;5.16;100.00
27334;BME280;14817;57.104;-2.094;2024-03-08T02:23:26;100917.78;;;5.11;100.00
27334;BME280;14817;57.104;-2.094;2024-03-08T02:25:57;100944.03;;;5.03;100.00
27334;BME280;14817;57.104;-2.094;2024-03-08T02:28:27;100932.47;;;5.04;100.00
27334;BME280;14817;57.104;-2.094;2024-03-08T02:30:55;100930.75;;;5.16;100.00
27334;BME280;14817;57.104;-2.094;2024-03-08T02:33:24;100938.19;;;5.11;100.00
27334;BME280;14817;57.104;-2.094;2024-03-08T02:35:52;100936.81;;;5.05;100.00
27334;BME280;14817;57.104;-2.094;2024-03-08T02:38:20;100950.50;;;5.12;100.00
27334;BME280;14817;57.104;-2.094;2024-03-08T02:40:49;100951.16;;;5.03;100.00
27334;BME280;14817;57.104;-2.094;2024-03-08T02:43:17;100968.03;;;5.15;100.00
27334;BME280;14817;57.104;-2.094;2024-03-08T02:45:45;100958.47;;;5.12;100.00
27334;BME280;14817;57.104;-2.094;2024-03-08T02:48:13;100983.00;;;5.16;100.00
27334;BME280;14817;57.104;-2.094;2024-03-08T02:50:40;100988.63;;;5.11;100.00
27334;BME280;14817;57.104;-2.094;2024-03-08T02:53:09;100994.16;;;5.21;100.00
27334;BME280;14817;57.104;-2.094;2024-03-08T02:55:37;101009.13;;;5.09;100.00
27334;BME280;14817;57.104;-2.094;2024-03-08T02:58:04;101027.72;;;5.09;100.00
27334;BME280;14817;57.104;-2.094;2024-03-08T03:00:31;101038.31;;;5.09;100.00
27334;BME280;14817;57.104;-2.094;2024-03-08T03:02:59;101047.03;;;5.11;100.00
27334;BME280;14817;57.104;-2.094;2024-03-08T03:05:26;101064.78;;;5.10;100.00
27334;BME280;14817;57.104;-2.094;2024-03-08T03:07:53;101053.19;;;5.11;100.00
27334;BME280;14817;57.104;-2.094;2024-03-08T03:10:20;101061.47;;;5.07;100.00
27334;BME280;14817;57.104;-2.094;2024-03-08T03:12:48;101051.09;;;5.17;100.00
27334;BME280;14817;57.104;-2.094;2024-03-08T03:15:15;101039.00;;;5.25;100.00
27334;BME280;14817;57.104;-2.094;2024-03-08T03:17:49;101037.41;;;5.23;100.00
27334;BME280;14817;57.104;-2.094;2024-03-08T03:20:19;101036.66;;;5.21;100.00
27334;BME280;14817;57.104;-2.094;2024-03-08T03:22:53;101023.56;;;5.18;100.00
27334;BME280;14817;57.104;-2.094;2024-03-08T03:25:21;101027.72;;;5.22;100.00
27334;BME280;14817;57.104;-2.094;2024-03-08T03:27:52;100992.56;;;5.18;100.00
27334;BME280;14817;57.104;-2.094;2024-03-08T03:30:24;101007.72;;;5.16;100.00
27334;BME280;14817;57.104;-2.094;2024-03-08T03:32:53;101018.16;;;5.06;100.00
27334;BME280;14817;57.104;-2.094;2024-03-08T03:35:22;101011.78;;;5.09;100.00
27334;BME280;14817;57.104;-2.094;2024-03-08T03:37:49;101002.97;;;5.08;100.00
27334;BME280;14817;57.104;-2.094;2024-03-08T03:40:38;101000.00;;;5.00;100.00
27334;BME280;14817;57.104;-2.094;2024-03-08T03:43:06;101006.13;;;5.01;100.00
27334;BME280;14817;57.104;-2.094;2024-03-08T03:45:33;101024.31;;;5.07;100.00
27334;BME280;14817;57.104;-2.094;2024-03-08T03:48:05;101029.50;;;4.96;100.00
27334;BME280;14817;57.104;-2.094;2024-03-08T03:50:39;101026.31;;;5.03;100.00
27334;BME280;14817;57.104;-2.094;2024-03-08T03:53:07;101049.75;;;4.97;100.00
27334;BME280;14817;57.104;-2.094;2024-03-08T03:55:36;101050.41;;;5.00;100.00
27334;BME280;14817;57.104;-2.094;2024-03-08T03:58:06;101046.78;;;5.01;100.00
27334;BME280;14817;57.104;-2.094;2024-03-08T04:00:33;101044.59;;;4.95;100.00
27334;BME280;14817;57.104;-2.094;2024-03-08T04:03:00;101049.25;;;4.91;100.00
27334;BME280;14817;57.104;-2.094;2024-03-08T04:05:28;101032.47;;;4.91;100.00
27334;BME280;14817;57.104;-2.094;2024-03-08T04:07:55;101035.97;;;4.91;100.00
27334;BME280;14817;57.104;-2.094;2024-03-08T04:10:21;101038.94;;;4.87;100.00
27334;BME280;14817;57.104;-2.094;2024-03-08T04:12:48;101023.41;;;4.81;100.00
27334;BME280;14817;57.104;-2.094;2024-03-08T04:15:15;101029.38;;;4.84;100.00
27334;BME280;14817;57.104;-2.094;2024-03-08T04:17:42;101035.09;;;4.78;100.00
27334;BME280;14817;57.104;-2.094;2024-03-08T04:20:09;101035.19;;;4.77;100.00
27334;BME280;14817;57.104;-2.094;2024-03-08T04:22:37;101036.13;;;4.76;100.00
27334;BME280;14817;57.104;-2.094;2024-03-08T04:25:08;101035.72;;;4.82;100.00
27334;BME280;14817;57.104;-2.094;2024-03-08T04:27:36;101051.94;;;4.77;100.00
27334;BME280;14817;57.104;-2.094;2024-03-08T04:30:03;101039.13;;;4.84;100.00
27334;BME280;14817;57.104;-2.094;2024-03-08T04:32:30;101040.28;;;4.80;100.00
27334;BME280;14817;57.104;-2.094;2024-03-08T04:35:00;101033.38;;;4.77;100.00
27334;BME280;14817;57.104;-2.094;2024-03-08T04:37:31;101029.88;;;4.77;100.00
27334;BME280;14817;57.104;-2.094;2024-03-08T04:39:58;101010.06;;;4.82;100.00
27334;BME280;14817;57.104;-2.094;2024-03-08T04:42:27;101009.31;;;4.80;100.00
27334;BME280;14817;57.104;-2.094;2024-03-08T04:44:56;101004.84;;;4.81;100.00
27334;BME280;14817;57.104;-2.094;2024-03-08T04:47:24;101019.69;;;4.70;100.00
27334;BME280;14817;57.104;-2.094;2024-03-08T04:49:51;100987.22;;;4.80;100.00
27334;BME280;14817;57.104;-2.094;2024-03-08T04:52:18;100986.47;;;4.78;100.00
27334;BME280;14817;57.104;-2.094;2024-03-08T04:54:45;101009.06;;;4.70;100.00
27334;BME280;14817;57.104;-2.094;2024-03-08T04:57:12;100989.56;;;4.72;100.00
27334;BME280;14817;57.104;-2.094;2024-03-08T04:59:39;100980.09;;;4.67;100.00
27334;BME280;14817;57.104;-2.094;2024-03-08T05:02:06;100982.00;;;4.65;100.00
27334;BME280;14817;57.104;-2.094;2024-03-08T05:04:34;100992.81;;;4.62;100.00
27334;BME280;14817;57.104;-2.094;2024-03-08T05:07:01;100985.59;;;4.64;100.00
27334;BME280;14817;57.104;-2.094;2024-03-08T05:09:28;100983.91;;;4.63;100.00
27334;BME280;14817;57.104;-2.094;2024-03-08T05:11:55;100982.53;;;4.70;100.00
27334;BME280;14817;57.104;-2.094;2024-03-08T05:14:25;100972.88;;;4.69;100.00
27334;BME280;14817;57.104;-2.094;2024-03-08T05:16:52;100978.47;;;4.65;100.00
27334;BME280;14817;57.104;-2.094;2024-03-08T05:19:20;100970.75;;;4.62;100.00
27334;BME280;14817;57.104;-2.094;2024-03-08T05:21:48;100975.38;;;4.58;100.00
27334;BME280;14817;57.104;-2.094;2024-03-08T05:24:15;100981.78;;;4.68;100.00
27334;BME280;14817;57.104;-2.094;2024-03-08T05:26:43;100976.13;;;4.60;100.00
27334;BME280;14817;57.104;-2.094;2024-03-08T05:29:11;100970.66;;;4.63;100.00
27334;BME280;14817;57.104;-2.094;2024-03-08T05:31:50;100957.56;;;4.60;100.00
27334;BME280;14817;57.104;-2.094;2024-03-08T05:34:19;100959.59;;;4.57;100.00
27334;BME280;14817;57.104;-2.094;2024-03-08T05:36:46;100965.75;;;4.57;100.00
27334;BME280;14817;57.104;-2.094;2024-03-08T05:39:13;100958.22;;;4.64;100.00
27334;BME280;14817;57.104;-2.094;2024-03-08T05:41:44;100951.75;;;4.68;100.00
27334;BME280;14817;57.104;-2.094;2024-03-08T05:44:11;100949.28;;;4.65;100.00
27334;BME280;14817;57.104;-2.094;2024-03-08T05:46:38;100954.19;;;4.71;100.00
27334;BME280;14817;57.104;-2.094;2024-03-08T05:49:06;100948.88;;;4.71;100.00
27334;BME280;14817;57.104;-2.094;2024-03-08T05:51:34;100940.72;;;4.61;100.00
27334;BME280;14817;57.104;-2.094;2024-03-08T05:54:06;100944.31;;;4.60;100.00
27334;BME280;14817;57.104;-2.094;2024-03-08T05:56:36;100944.88;;;4.65;100.00
27334;BME280;14817;57.104;-2.094;2024-03-08T05:59:03;100935.31;;;4.76;100.00
27334;BME280;14817;57.104;-2.094;2024-03-08T06:01:30;100933.38;;;4.65;100.00
27334;BME280;14817;57.104;-2.094;2024-03-08T06:03:57;100949.28;;;4.65;100.00
27334;BME280;14817;57.104;-2.094;2024-03-08T06:06:25;100932.34;;;4.67;100.00
27334;BME280;14817;57.104;-2.094;2024-03-08T06:08:52;100932.22;;;4.69;100.00
27334;BME280;14817;57.104;-2.094;2024-03-08T06:11:20;100935.19;;;4.64;100.00
27334;BME280;14817;57.104;-2.094;2024-03-08T06:13:47;100953.97;;;4.61;100.00
27334;BME280;14817;57.104;-2.094;2024-03-08T06:16:15;100928.53;;;4.72;100.00
27334;BME280;14817;57.104;-2.094;2024-03-08T06:18:42;100930.44;;;4.69;100.00
27334;BME280;14817;57.104;-2.094;2024-03-08T06:21:09;100922.69;;;4.66;100.00
27334;BME280;14817;57.104;-2.094;2024-03-08T06:23:38;100923.66;;;4.65;100.00
27334;BME280;14817;57.104;-2.094;2024-03-08T06:26:05;100933.81;;;4.59;100.00
27334;BME280;14817;57.104;-2.094;2024-03-08T06:28:32;100941.88;;;4.57;100.00
27334;BME280;14817;57.104;-2.094;2024-03-08T06:30:59;100938.66;;;4.52;100.00
27334;BME280;14817;57.104;-2.094;2024-03-08T06:33:26;100929.56;;;4.56;100.00
27334;BME280;14817;57.104;-2.094;2024-03-08T06:35:54;100929.22;;;4.48;100.00
27334;BME280;14817;57.104;-2.094;2024-03-08T06:38:25;100925.72;;;4.47;100.00
27334;BME280;14817;57.104;-2.094;2024-03-08T06:40:52;100931.34;;;4.43;100.00
27334;BME280;14817;57.104;-2.094;2024-03-08T06:43:19;100923.38;;;4.43;100.00
27334;BME280;14817;57.104;-2.094;2024-03-08T06:45:46;100937.59;;;4.42;100.00
27334;BME280;14817;57.104;-2.094;2024-03-08T06:48:18;100934.97;;;4.42;100.00
27334;BME280;14817;57.104;-2.094;2024-03-08T06:50:47;100937.59;;;4.42;100.00
27334;BME280;14817;57.104;-2.094;2024-03-08T06:53:14;100925.78;;;4.33;100.00
27334;BME280;14817;57.104;-2.094;2024-03-08T06:55:46;100940.84;;;4.33;100.00
27334;BME280;14817;57.104;-2.094;2024-03-08T06:58:14;100945.72;;;4.26;100.00
27334;BME280;14817;57.104;-2.094;2024-03-08T07:00:40;100949.22;;;4.26;100.00
27334;BME280;14817;57.104;-2.094;2024-03-08T07:03:08;100949.41;;;4.23;100.00
27334;BME280;14817;57.104;-2.094;2024-03-08T07:05:38;100945.31;;;4.32;100.00
27334;BME280;14817;57.104;-2.094;2024-03-08T07:08:07;100949.22;;;4.26;100.00
27334;BME280;14817;57.104;-2.094;2024-03-08T07:10:34;100936.28;;;4.35;100.00
27334;BME280;14817;57.104;-2.094;2024-03-08T07:13:01;100957.50;;;4.35;100.00
27334;BME280;14817;57.104;-2.094;2024-03-08T07:15:28;100946.06;;;4.34;100.00
27334;BME280;14817;57.104;-2.094;2024-03-08T07:17:55;100934.41;;;4.37;100.00
27334;BME280;14817;57.104;-2.094;2024-03-08T07:20:23;100938.94;;;4.35;100.00
27334;BME280;14817;57.104;-2.094;2024-03-08T07:22:49;100962.47;;;4.26;100.00
27334;BME280;14817;57.104;-2.094;2024-03-08T07:25:19;100949.03;;;4.29;100.00
27334;BME280;14817;57.104;-2.094;2024-03-08T07:27:48;100960.78;;;4.25;100.00
27334;BME280;14817;57.104;-2.094;2024-03-08T07:30:15;100951.28;;;4.36;100.00
27334;BME280;14817;57.104;-2.094;2024-03-08T07:33:02;100956.53;;;4.23;100.00
27334;BME280;14817;57.104;-2.094;2024-03-08T07:35:29;100946.47;;;4.28;100.00
27334;BME280;14817;57.104;-2.094;2024-03-08T07:37:57;100936.28;;;4.35;100.00
27334;BME280;14817;57.104;-2.094;2024-03-08T07:40:26;100940.50;;;4.24;100.00
27334;BME280;14817;57.104;-2.094;2024-03-08T07:42:53;100944.03;;;4.25;100.00
27334;BME280;14817;57.104;-2.094;2024-03-08T07:45:20;100939.66;;;4.24;100.00
27334;BME280;14817;57.104;-2.094;2024-03-08T07:47:50;100944.78;;;4.27;100.00
27334;BME280;14817;57.104;-2.094;2024-03-08T07:50:20;100949.22;;;4.26;100.00
27334;BME280;14817;57.104;-2.094;2024-03-08T07:52:49;100954.72;;;4.23;100.00
27334;BME280;14817;57.104;-2.094;2024-03-08T07:55:16;100958.53;;;4.19;100.00
27334;BME280;14817;57.104;-2.094;2024-03-08T07:57:43;100970.38;;;4.14;100.00
27334;BME280;14817;57.104;-2.094;2024-03-08T08:00:10;100968.06;;;4.22;100.00
27334;BME280;14817;57.104;-2.094;2024-03-08T08:02:39;100967.44;;;4.18;100.00
27334;BME280;14817;57.104;-2.094;2024-03-08T08:05:06;100950.78;;;4.16;100.00
27334;BME280;14817;57.104;-2.094;2024-03-08T08:07:33;100950.88;;;4.15;100.00
27334;BME280;14817;57.104;-2.094;2024-03-08T08:10:00;100951.41;;;4.20;100.00
27334;BME280;14817;57.104;-2.094;2024-03-08T08:12:27;100946.03;;;4.21;100.00
27334;BME280;14817;57.104;-2.094;2024-03-08T08:14:55;100949.72;;;4.19;100.00
27334;BME280;14817;57.104;-2.094;2024-03-08T08:17:23;100949.50;;;4.22;100.00
27334;BME280;14817;57.104;-2.094;2024-03-08T08:19:50;100947.38;;;4.14;100.00
27334;BME280;14817;57.104;-2.094;2024-03-08T08:22:17;100944.91;;;4.11;100.00
27334;BME280;14817;57.104;-2.094;2024-03-08T08:24:44;100935.63;;;4.18;100.00
27334;BME280;14817;57.104;-2.094;2024-03-08T08:27:12;100932.28;;;4.29;100.00
27334;BME280;14817;57.104;-2.094;2024-03-08T08:29:38;100932.06;;;4.32;100.00
27334;BME280;14817;57.104;-2.094;2024-03-08T08:32:06;100932.91;;;4.33;100.00
27334;BME280;14817;57.104;-2.094;2024-03-08T08:34:33;100929.41;;;4.32;100.00
27334;BME280;14817;57.104;-2.094;2024-03-08T08:37:00;100926.66;;;4.34;100.00
27334;BME280;14817;57.104;-2.094;2024-03-08T08:39:29;100918.47;;;4.37;100.00
27334;BME280;14817;57.104;-2.094;2024-03-08T08:41:56;100904.47;;;4.35;100.00
27334;BME280;14817;57.104;-2.094;2024-03-08T08:44:24;100920.19;;;4.38;100.00
27334;BME280;14817;57.104;-2.094;2024-03-08T08:46:52;100912.13;;;4.39;100.00
27334;BME280;14817;57.104;-2.094;2024-03-08T08:49:28;100911.53;;;4.48;100.00
27334;BME280;14817;57.104;-2.094;2024-03-08T08:51:55;100898.69;;;4.42;100.00
27334;BME280;14817;57.104;-2.094;2024-03-08T08:54:26;100911.28;;;4.39;100.00
27334;BME280;14817;57.104;-2.094;2024-03-08T08:56:54;100920.06;;;4.39;100.00
27334;BME280;14817;57.104;-2.094;2024-03-08T08:59:21;100923.19;;;4.46;100.00
27334;BME280;14817;57.104;-2.094;2024-03-08T09:01:49;100920.63;;;4.44;100.00
27334;BME280;14817;57.104;-2.094;2024-03-08T09:04:18;100934.53;;;4.48;100.00
27334;BME280;14817;57.104;-2.094;2024-03-08T09:06:45;100922.78;;;4.65;100.00
27334;BME280;14817;57.104;-2.094;2024-03-08T09:09:12;100922.97;;;4.49;100.00
27334;BME280;14817;57.104;-2.094;2024-03-08T09:11:40;100923.31;;;4.57;100.00
27334;BME280;14817;57.104;-2.094;2024-03-08T09:14:09;100921.84;;;4.66;100.00
27334;BME280;14817;57.104;-2.094;2024-03-08T09:16:39;100919.19;;;4.66;100.00
27334;BME280;14817;57.104;-2.094;2024-03-08T09:19:05;100919.19;;;4.66;100.00
27334;BME280;14817;57.104;-2.094;2024-03-08T09:21:33;100910.47;;;4.64;100.00
27334;BME280;14817;57.104;-2.094;2024-03-08T09:24:03;100909.22;;;4.69;100.00
27334;BME280;14817;57.104;-2.094;2024-03-08T09:26:30;100895.22;;;4.80;100.00
27334;BME280;14817;57.104;-2.094;2024-03-08T09:28:57;100891.50;;;4.83;100.00
27334;BME280;14817;57.104;-2.094;2024-03-08T09:31:24;100876.41;;;4.83;100.00
27334;BME280;14817;57.104;-2.094;2024-03-08T09:33:51;100886.59;;;4.77;100.00
27334;BME280;14817;57.104;-2.094;2024-03-08T09:36:18;100878.66;;;4.77;100.00
27334;BME280;14817;57.104;-2.094;2024-03-08T09:38:45;100870.03;;;4.86;100.00
27334;BME280;14817;57.104;-2.094;2024-03-08T09:41:12;100873.53;;;4.86;100.00
27334;BME280;14817;57.104;-2.094;2024-03-08T09:43:39;100863.38;;;4.93;100.00
27334;BME280;14817;57.104;-2.094;2024-03-08T09:46:07;100858.88;;;5.06;100.00
27334;BME280;14817;57.104;-2.094;2024-03-08T09:48:34;100854.44;;;4.94;100.00
27334;BME280;14817;57.104;-2.094;2024-03-08T09:51:03;100850.50;;;5.00;100.00
27334;BME280;14817;57.104;-2.094;2024-03-08T09:53:30;100863.13;;;5.09;100.00
27334;BME280;14817;57.104;-2.094;2024-03-08T09:55:57;100844.00;;;5.17;100.00
27334;BME280;14817;57.104;-2.094;2024-03-08T09:58:25;100858.25;;;5.03;100.00
27334;BME280;14817;57.104;-2.094;2024-03-08T10:01:03;100846.50;;;5.31;100.00
27334;BME280;14817;57.104;-2.094;2024-03-08T10:03:31;100836.09;;;5.28;100.00
27334;BME280;14817;57.104;-2.094;2024-03-08T10:05:59;100841.00;;;5.21;100.00
27334;BME280;14817;57.104;-2.094;2024-03-08T10:08:30;100836.34;;;5.25;100.00
27334;BME280;14817;57.104;-2.094;2024-03-08T10:10:57;100829.72;;;5.30;100.00
27334;BME280;14817;57.104;-2.094;2024-03-08T10:13:25;100817.75;;;5.25;100.00
27334;BME280;14817;57.104;-2.094;2024-03-08T10:15:55;100817.63;;;5.26;100.00
27334;BME280;14817;57.104;-2.094;2024-03-08T10:18:22;100807.84;;;5.27;100.00
27334;BME280;14817;57.104;-2.094;2024-03-08T10:21:03;100799.66;;;5.30;100.00
27334;BME280;14817;57.104;-2.094;2024-03-08T10:23:34;100798.03;;;5.40;100.00
27334;BME280;14817;57.104;-2.094;2024-03-08T10:26:30;100802.63;;;5.38;100.00
27334;BME280;14817;57.104;-2.094;2024-03-08T10:28:57;100815.16;;;5.36;100.00
27334;BME280;14817;57.104;-2.094;2024-03-08T10:31:25;100811.94;;;5.44;100.00
27334;BME280;14817;57.104;-2.094;2024-03-08T10:33:52;100814.28;;;5.48;100.00
27334;BME280;14817;57.104;-2.094;2024-03-08T10:36:19;100821.25;;;5.49;100.00
27334;BME280;14817;57.104;-2.094;2024-03-08T10:38:46;100807.16;;;5.49;100.00
27334;BME280;14817;57.104;-2.094;2024-03-08T10:41:15;100800.50;;;5.55;100.00
27334;BME280;14817;57.104;-2.094;2024-03-08T10:43:57;100790.16;;;5.63;100.00
27334;BME280;14817;57.104;-2.094;2024-03-08T10:47:03;100776.28;;;5.59;100.00
27334;BME280;14817;57.104;-2.094;2024-03-08T10:49:54;100771.91;;;5.58;100.00
27334;BME280;14817;57.104;-2.094;2024-03-08T10:52:21;100776.84;;;5.51;100.00
27334;BME280;14817;57.104;-2.094;2024-03-08T10:54:51;100773.94;;;5.55;100.00
27334;BME280;14817;57.104;-2.094;2024-03-08T10:57:19;100776.09;;;5.49;100.00
27334;BME280;14817;57.104;-2.094;2024-03-08T10:59:48;100770.78;;;5.49;100.00
27334;BME280;14817;57.104;-2.094;2024-03-08T11:02:17;100753.03;;;5.50;100.00
27334;BME280;14817;57.104;-2.094;2024-03-08T11:04:47;100747.63;;;5.51;100.00
27334;BME280;14817;57.104;-2.094;2024-03-08T11:07:16;100744.34;;;5.48;100.00
27334;BME280;14817;57.104;-2.094;2024-03-08T11:09:47;100747.63;;;5.51;100.00
27334;BME280;14817;57.104;-2.094;2024-03-08T11:12:29;100741.97;;;5.56;100.00
27334;BME280;14817;57.104;-2.094;2024-03-08T11:15:10;100737.75;;;5.65;100.00
27334;BME280;14817;57.104;-2.094;2024-03-08T11:20:24;100743.91;;;5.65;100.00
27334;BME280;14817;57.104;-2.094;2024-03-08T11:22:53;100743.31;;;5.62;100.00
27334;BME280;14817;57.104;-2.094;2024-03-08T11:33:35;100749.41;;;5.75;100.00
27334;BME280;14817;57.104;-2.094;2024-03-08T11:36:13;100740.88;;;5.83;100.00
27334;BME280;14817;57.104;-2.094;2024-03-08T11:38:43;100736.66;;;5.91;100.00
27334;BME280;14817;57.104;-2.094;2024-03-08T11:41:11;100749.72;;;5.95;100.00
27334;BME280;14817;57.104;-2.094;2024-03-08T11:43:48;100747.28;;;5.91;100.00
27334;BME280;14817;57.104;-2.094;2024-03-08T11:46:16;100735.25;;;5.99;100.00
27334;BME280;14817;57.104;-2.094;2024-03-08T11:48:47;100729.41;;;5.93;100.00
27334;BME280;14817;57.104;-2.094;2024-03-08T11:51:15;100722.50;;;5.91;100.00
27334;BME280;14817;57.104;-2.094;2024-03-08T11:53:42;100719.97;;;5.89;100.00
27334;BME280;14817;57.104;-2.094;2024-03-08T11:56:13;100706.25;;;5.96;100.00
27334;BME280;14817;57.104;-2.094;2024-03-08T11:58:41;100712.78;;;6.03;100.00
27334;BME280;14817;57.104;-2.094;2024-03-08T12:01:09;100708.56;;;6.11;100.00
27334;BME280;14817;57.104;-2.094;2024-03-08T12:03:39;100728.75;;;6.14;100.00
27334;BME280;14817;57.104;-2.094;2024-03-08T12:06:10;100730.44;;;6.15;100.00
27334;BME280;14817;57.104;-2.094;2024-03-08T12:08:37;100707.00;;;6.20;100.00
27334;BME280;14817;57.104;-2.094;2024-03-08T12:11:04;100698.19;;;6.20;100.00
27334;BME280;14817;57.104;-2.094;2024-03-08T12:13:34;100686.34;;;6.12;100.00
27334;BME280;14817;57.104;-2.094;2024-03-08T12:16:09;100681.00;;;6.01;100.00
27334;BME280;14817;57.104;-2.094;2024-03-08T12:18:38;100681.69;;;5.92;100.00
27334;BME280;14817;57.104;-2.094;2024-03-08T12:21:10;100661.25;;;5.92;100.00
27334;BME280;14817;57.104;-2.094;2024-03-08T12:23:38;100662.63;;;5.98;100.00
27334;BME280;14817;57.104;-2.094;2024-03-08T12:26:34;100658.00;;;5.89;100.00
27334;BME280;14817;57.104;-2.094;2024-03-08T12:29:19;100650.63;;;5.92;100.00
27334;BME280;14817;57.104;-2.094;2024-03-08T12:31:58;100641.25;;;6.00;100.00
27334;BME280;14817;57.104;-2.094;2024-03-08T12:34:27;100658.03;;;6.00;100.00
27334;BME280;14817;57.104;-2.094;2024-03-08T12:36:55;100652.94;;;5.97;100.00
27334;BME280;14817;57.104;-2.094;2024-03-08T12:39:22;100662.41;;;6.12;100.00
27334;BME280;14817;57.104;-2.094;2024-03-08T12:41:54;100662.03;;;6.17;100.00
27334;BME280;14817;57.104;-2.094;2024-03-08T12:44:21;100677.38;;;6.25;100.00
27334;BME280;14817;57.104;-2.094;2024-03-08T12:46:49;100668.66;;;6.23;100.00
27334;BME280;14817;57.104;-2.094;2024-03-08T12:49:19;100663.38;;;6.34;100.00
27334;BME280;14817;57.104;-2.094;2024-03-08T12:51:49;100662.88;;;6.40;100.00
27334;BME280;14817;57.104;-2.094;2024-03-08T12:54:15;100671.94;;;6.49;100.00
27334;BME280;14817;57.104;-2.094;2024-03-08T12:56:42;100667.47;;;6.49;100.00
27334;BME280;14817;57.104;-2.094;2024-03-08T12:59:10;100692.00;;;6.42;100.00
27334;BME280;14817;57.104;-2.094;2024-03-08T13:01:37;100677.84;;;6.52;100.00